Huvudsida
METAR-TAF:

METAR-TAF

Flygplatser :

Gioia del Colle, Italien

latitud: 40-46N, longitud: 016-56E, höjd: 345 m

Aktuellt väderrapport

Denna rapport gjordes för 1 timme och 18 minuter sedan, klockan 19:55 UTC
Vind 7 kt från väst
Temperatur 12°C
Fuktighet 67%
Tryck 1015 hPa
Sikt 10 km eller mer
Inga moln under 1 500 m eller inga cumulonimbus

METAR: LIBV 211955Z 27007KT CAVOK 12/06 Q1015

Tid: 23:13 (21:13 UTC)

Väderprognos

Denna rapport gjordes för 1 timme och 13 minuter sedan, klockan 20:00 UTC
Prognos gäller från 21 kl. 21 UTC till 22 kl. 06 UTC
Vind 5 kt från syd
Sikt 10 km eller mer
Spridda moln på en höjd av 3000 ft

TAF: LIBV 212000Z 2121/2206 19005KT 9999 SCT030

Aktuella väderrapporter och prognoser från 4000 flygplatser (METAR- och TAF-rapporter).

De tillgängliga stationerna syns som gula och röda prickar på kartan.

För musen över prickarna för att se namnen på stationerna.

Klicka sedan för att få väderrapporter och prognoser.

För att ändra kartan: Klicka på de gröna knapparna med ett svart kors på för att zooma in; den gröna knappen med ett streck på för att zooma ut; eller på de gröna pilarna för angränsande kartor.


METAR-TAF: